sensor_id;sensor_type;location;lat;lon;timestamp;pressure;altitude;pressure_sealevel;temperature;humidity
21779;BME280;11050;52.222;20.916;2023-04-27T00:01:12;100160.41;;;4.14;100.00
21779;BME280;11050;52.222;20.916;2023-04-27T00:03:38;100158.13;;;4.11;100.00
21779;BME280;11050;52.222;20.916;2023-04-27T00:06:05;100159.16;;;4.10;100.00
21779;BME280;11050;52.222;20.916;2023-04-27T00:08:30;100158.97;;;4.05;100.00
21779;BME280;11050;52.222;20.916;2023-04-27T00:10:56;100161.47;;;4.06;100.00
21779;BME280;11050;52.222;20.916;2023-04-27T00:13:22;100159.59;;;4.00;100.00
21779;BME280;11050;52.222;20.916;2023-04-27T00:15:48;100163.41;;;3.99;100.00
21779;BME280;11050;52.222;20.916;2023-04-27T00:18:13;100164.81;;;4.02;100.00
21779;BME280;11050;52.222;20.916;2023-04-27T00:20:39;100156.28;;;3.98;100.00
21779;BME280;11050;52.222;20.916;2023-04-27T00:23:05;100166.13;;;3.99;100.00
21779;BME280;11050;52.222;20.916;2023-04-27T00:25:31;100159.66;;;3.94;100.00
21779;BME280;11050;52.222;20.916;2023-04-27T00:27:57;100150.66;;;3.86;100.00
21779;BME280;11050;52.222;20.916;2023-04-27T00:30:23;100162.78;;;3.91;100.00
21779;BME280;11050;52.222;20.916;2023-04-27T00:32:49;100160.28;;;3.89;100.00
21779;BME280;11050;52.222;20.916;2023-04-27T00:35:15;100172.00;;;3.90;100.00
21779;BME280;11050;52.222;20.916;2023-04-27T00:37:41;100155.91;;;3.81;100.00
21779;BME280;11050;52.222;20.916;2023-04-27T00:40:07;100169.28;;;3.90;100.00
21779;BME280;11050;52.222;20.916;2023-04-27T00:42:34;100171.81;;;3.84;100.00
21779;BME280;11050;52.222;20.916;2023-04-27T00:45:00;100174.94;;;3.81;100.00
21779;BME280;11050;52.222;20.916;2023-04-27T00:47:27;100166.16;;;3.79;100.00
21779;BME280;11050;52.222;20.916;2023-04-27T00:49:53;100172.25;;;3.75;100.00
21779;BME280;11050;52.222;20.916;2023-04-27T00:52:20;100173.50;;;3.72;100.00
21779;BME280;11050;52.222;20.916;2023-04-27T00:54:50;100164.72;;;3.64;100.00
21779;BME280;11050;52.222;20.916;2023-04-27T00:57:16;100183.75;;;3.70;100.00
21779;BME280;11050;52.222;20.916;2023-04-27T00:59:42;100172.25;;;3.68;100.00
21779;BME280;11050;52.222;20.916;2023-04-27T01:02:11;100179.16;;;3.64;100.00
21779;BME280;11050;52.222;20.916;2023-04-27T01:04:38;100178.75;;;3.61;100.00
21779;BME280;11050;52.222;20.916;2023-04-27T01:07:04;100182.72;;;3.58;100.00
21779;BME280;11050;52.222;20.916;2023-04-27T01:09:29;100186.06;;;3.60;100.00
21779;BME280;11050;52.222;20.916;2023-04-27T01:11:55;100185.88;;;3.55;100.00
21779;BME280;11050;52.222;20.916;2023-04-27T01:14:22;100190.69;;;3.53;100.00
21779;BME280;11050;52.222;20.916;2023-04-27T01:16:48;100189.84;;;3.53;100.00
21779;BME280;11050;52.222;20.916;2023-04-27T01:19:15;100187.78;;;3.48;100.00
21779;BME280;11050;52.222;20.916;2023-04-27T01:21:41;100188.19;;;3.45;100.00
21779;BME280;11050;52.222;20.916;2023-04-27T01:24:07;100197.59;;;3.43;100.00
21779;BME280;11050;52.222;20.916;2023-04-27T01:26:33;100189.03;;;3.39;100.00
21779;BME280;11050;52.222;20.916;2023-04-27T01:28:59;100191.31;;;3.36;100.00
21779;BME280;11050;52.222;20.916;2023-04-27T01:31:25;100193.22;;;3.35;100.00
21779;BME280;11050;52.222;20.916;2023-04-27T01:33:51;100185.47;;;3.32;100.00
21779;BME280;11050;52.222;20.916;2023-04-27T01:36:16;100194.88;;;3.36;100.00
21779;BME280;11050;52.222;20.916;2023-04-27T01:38:43;100195.53;;;3.32;100.00
21779;BME280;11050;52.222;20.916;2023-04-27T01:41:09;100191.34;;;3.29;100.00
21779;BME280;11050;52.222;20.916;2023-04-27T01:43:35;100188.41;;;3.31;100.00
21779;BME280;11050;52.222;20.916;2023-04-27T01:46:09;100194.91;;;3.30;100.00
21779;BME280;11050;52.222;20.916;2023-04-27T01:48:35;100193.84;;;3.24;100.00
21779;BME280;11050;52.222;20.916;2023-04-27T01:51:02;100192.16;;;3.23;100.00
21779;BME280;11050;52.222;20.916;2023-04-27T01:53:28;100203.88;;;3.24;100.00
21779;BME280;11050;52.222;20.916;2023-04-27T01:55:54;100202.84;;;3.18;100.00
21779;BME280;11050;52.222;20.916;2023-04-27T01:58:20;100208.88;;;3.20;100.00
21779;BME280;11050;52.222;20.916;2023-04-27T02:00:46;100213.47;;;3.20;100.00
21779;BME280;11050;52.222;20.916;2023-04-27T02:03:12;100205.75;;;3.10;100.00
21779;BME280;11050;52.222;20.916;2023-04-27T02:05:38;100208.47;;;3.10;100.00
21779;BME280;11050;52.222;20.916;2023-04-27T02:08:04;100211.59;;;3.14;100.00
21779;BME280;11050;52.222;20.916;2023-04-27T02:10:30;100207.22;;;3.13;100.00
21779;BME280;11050;52.222;20.916;2023-04-27T02:12:56;100200.13;;;3.05;100.00
21779;BME280;11050;52.222;20.916;2023-04-27T02:15:22;100207.63;;;3.10;100.00
21779;BME280;11050;52.222;20.916;2023-04-27T02:17:48;100209.91;;;3.06;100.00
21779;BME280;11050;52.222;20.916;2023-04-27T02:20:14;100200.94;;;3.06;100.00
21779;BME280;11050;52.222;20.916;2023-04-27T02:22:41;100204.69;;;3.05;100.00
21779;BME280;11050;52.222;20.916;2023-04-27T02:25:12;100199.88;;;3.00;100.00
21779;BME280;11050;52.222;20.916;2023-04-27T02:27:40;100195.50;;;2.92;100.00
21779;BME280;11050;52.222;20.916;2023-04-27T02:30:10;100189.25;;;2.92;100.00
21779;BME280;11050;52.222;20.916;2023-04-27T02:32:36;100194.03;;;2.90;100.00
21779;BME280;11050;52.222;20.916;2023-04-27T02:35:03;100195.69;;;2.91;100.00
21779;BME280;11050;52.222;20.916;2023-04-27T02:37:29;100197.38;;;2.85;100.00
21779;BME280;11050;52.222;20.916;2023-04-27T02:39:56;100194.03;;;2.83;100.00
21779;BME280;11050;52.222;20.916;2023-04-27T02:42:22;100203.63;;;2.86;100.00
21779;BME280;11050;52.222;20.916;2023-04-27T02:44:48;100194.03;;;2.77;100.00
21779;BME280;11050;52.222;20.916;2023-04-27T02:47:13;100214.06;;;2.82;100.00
21779;BME280;11050;52.222;20.916;2023-04-27T02:49:39;100203.81;;;2.78;100.00
21779;BME280;11050;52.222;20.916;2023-04-27T02:52:05;100214.25;;;2.81;100.00
21779;BME280;11050;52.222;20.916;2023-04-27T02:54:31;100208.41;;;2.77;100.00
21779;BME280;11050;52.222;20.916;2023-04-27T02:56:57;100213.66;;;2.79;100.00
21779;BME280;11050;52.222;20.916;2023-04-27T02:59:22;100213.03;;;2.77;100.00
21779;BME280;11050;52.222;20.916;2023-04-27T03:01:48;100220.94;;;2.78;100.00
21779;BME280;11050;52.222;20.916;2023-04-27T03:04:14;100213.84;;;2.77;100.00
21779;BME280;11050;52.222;20.916;2023-04-27T03:06:40;100222.59;;;2.79;100.00
21779;BME280;11050;52.222;20.916;2023-04-27T03:09:06;100218.44;;;2.77;100.00
21779;BME280;11050;52.222;20.916;2023-04-27T03:11:33;100215.72;;;2.70;100.00
21779;BME280;11050;52.222;20.916;2023-04-27T03:13:58;100218.41;;;2.70;100.00
21779;BME280;11050;52.222;20.916;2023-04-27T03:16:25;100217.78;;;2.68;100.00
21779;BME280;11050;52.222;20.916;2023-04-27T03:18:50;100220.50;;;2.62;100.00
21779;BME280;11050;52.222;20.916;2023-04-27T03:21:16;100213.00;;;2.64;100.00
21779;BME280;11050;52.222;20.916;2023-04-27T03:23:42;100223.84;;;2.64;100.00
21779;BME280;11050;52.222;20.916;2023-04-27T03:26:10;100221.56;;;2.67;100.00
21779;BME280;11050;52.222;20.916;2023-04-27T03:28:36;100216.56;;;2.71;100.00
21779;BME280;11050;52.222;20.916;2023-04-27T03:31:11;100219.25;;;2.71;100.00
21779;BME280;11050;52.222;20.916;2023-04-27T03:33:38;100228.00;;;2.66;100.00
21779;BME280;11050;52.222;20.916;2023-04-27T03:36:06;100220.28;;;2.70;100.00
21779;BME280;11050;52.222;20.916;2023-04-27T03:38:33;100219.47;;;2.69;100.00
21779;BME280;11050;52.222;20.916;2023-04-27T03:40:59;100218.22;;;2.72;100.00
21779;BME280;11050;52.222;20.916;2023-04-27T03:43:25;100230.53;;;2.74;100.00
21779;BME280;11050;52.222;20.916;2023-04-27T03:45:52;100228.66;;;2.81;100.00
21779;BME280;11050;52.222;20.916;2023-04-27T03:48:18;100216.38;;;2.79;100.00
21779;BME280;11050;52.222;20.916;2023-04-27T03:50:45;100225.97;;;2.88;100.00
21779;BME280;11050;52.222;20.916;2023-04-27T03:53:13;100237.25;;;2.98;100.00
21779;BME280;11050;52.222;20.916;2023-04-27T03:55:43;100249.38;;;3.02;100.00
21779;BME280;11050;52.222;20.916;2023-04-27T03:58:10;100255.66;;;3.09;100.00
21779;BME280;11050;52.222;20.916;2023-04-27T04:00:37;100258.38;;;3.16;100.00
21779;BME280;11050;52.222;20.916;2023-04-27T04:03:03;100256.31;;;3.24;100.00
21779;BME280;11050;52.222;20.916;2023-04-27T04:05:29;100259.84;;;3.31;100.00
21779;BME280;11050;52.222;20.916;2023-04-27T04:07:56;100270.53;;;3.39;100.00
21779;BME280;11050;52.222;20.916;2023-04-27T04:10:23;100266.31;;;3.43;100.00
21779;BME280;11050;52.222;20.916;2023-04-27T04:12:49;100259.22;;;3.49;100.00
21779;BME280;11050;52.222;20.916;2023-04-27T04:15:15;100258.16;;;3.56;100.00
21779;BME280;11050;52.222;20.916;2023-04-27T04:17:41;100269.88;;;3.63;100.00
21779;BME280;11050;52.222;20.916;2023-04-27T04:20:07;100263.81;;;3.68;100.00
21779;BME280;11050;52.222;20.916;2023-04-27T04:22:34;100266.09;;;3.77;100.00
21779;BME280;11050;52.222;20.916;2023-04-27T04:25:00;100269.03;;;3.82;100.00
21779;BME280;11050;52.222;20.916;2023-04-27T04:27:25;100261.47;;;3.91;100.00
21779;BME280;11050;52.222;20.916;2023-04-27T04:29:51;100274.00;;;3.99;100.00
21779;BME280;11050;52.222;20.916;2023-04-27T04:32:17;100271.06;;;4.07;100.00
21779;BME280;11050;52.222;20.916;2023-04-27T04:34:50;100263.09;;;4.12;100.00
21779;BME280;11050;52.222;20.916;2023-04-27T04:37:16;100267.66;;;4.24;100.00
21779;BME280;11050;52.222;20.916;2023-04-27T04:39:44;100267.88;;;4.29;100.00
21779;BME280;11050;52.222;20.916;2023-04-27T04:42:10;100265.53;;;4.39;100.00
21779;BME280;11050;52.222;20.916;2023-04-27T04:44:37;100276.63;;;4.44;100.00
21779;BME280;11050;52.222;20.916;2023-04-27T04:47:04;100275.53;;;4.52;100.00
21779;BME280;11050;52.222;20.916;2023-04-27T04:49:29;100280.13;;;4.58;100.00
21779;BME280;11050;52.222;20.916;2023-04-27T04:51:55;100280.47;;;4.68;100.00
21779;BME280;11050;52.222;20.916;2023-04-27T04:54:21;100280.47;;;4.74;100.00
21779;BME280;11050;52.222;20.916;2023-04-27T04:56:47;100277.50;;;4.82;100.00
21779;BME280;11050;52.222;20.916;2023-04-27T04:59:12;100281.63;;;4.92;100.00
21779;BME280;11050;52.222;20.916;2023-04-27T05:01:38;100269.50;;;4.88;99.71
21779;BME280;11050;52.222;20.916;2023-04-27T05:04:04;100285.13;;;4.99;98.56
21779;BME280;11050;52.222;20.916;2023-04-27T05:06:30;100292.63;;;5.10;98.71
21779;BME280;11050;52.222;20.916;2023-04-27T05:08:56;100298.81;;;5.23;98.38
21779;BME280;11050;52.222;20.916;2023-04-27T05:11:22;100291.50;;;5.24;97.80
21779;BME280;11050;52.222;20.916;2023-04-27T05:13:48;100291.25;;;5.25;97.06
21779;BME280;11050;52.222;20.916;2023-04-27T05:16:14;100299.34;;;5.38;96.90
21779;BME280;11050;52.222;20.916;2023-04-27T05:18:39;100303.03;;;5.50;96.66
21779;BME280;11050;52.222;20.916;2023-04-27T05:21:14;100293.56;;;5.53;96.03
21779;BME280;11050;52.222;20.916;2023-04-27T05:23:40;100289.75;;;5.60;95.47
21779;BME280;11050;52.222;20.916;2023-04-27T05:26:16;100305.31;;;5.78;95.04
21779;BME280;11050;52.222;20.916;2023-04-27T05:28:42;100299.03;;;5.84;93.26
21779;BME280;11050;52.222;20.916;2023-04-27T05:31:08;100301.44;;;5.92;92.45
21779;BME280;11050;52.222;20.916;2023-04-27T05:33:34;100313.53;;;6.03;92.66
21779;BME280;11050;52.222;20.916;2023-04-27T05:36:00;100313.69;;;6.08;92.25
21779;BME280;11050;52.222;20.916;2023-04-27T05:38:26;100320.31;;;6.18;91.88
21779;BME280;11050;52.222;20.916;2023-04-27T05:40:58;100315.25;;;6.22;89.80
21779;BME280;11050;52.222;20.916;2023-04-27T05:43:25;100318.06;;;6.33;89.03
21779;BME280;11050;52.222;20.916;2023-04-27T05:45:51;100308.78;;;6.34;89.34
21779;BME280;11050;52.222;20.916;2023-04-27T05:48:18;100321.03;;;6.50;88.68
21779;BME280;11050;52.222;20.916;2023-04-27T05:50:44;100308.72;;;6.59;87.80
21779;BME280;11050;52.222;20.916;2023-04-27T05:53:10;100323.97;;;6.66;87.28
21779;BME280;11050;52.222;20.916;2023-04-27T05:55:36;100322.84;;;6.74;87.14
21779;BME280;11050;52.222;20.916;2023-04-27T05:58:05;100324.19;;;6.83;86.82
21779;BME280;11050;52.222;20.916;2023-04-27T06:00:31;100321.81;;;6.87;86.82
21779;BME280;11050;52.222;20.916;2023-04-27T06:02:57;100319.63;;;6.95;86.33
21779;BME280;11050;52.222;20.916;2023-04-27T06:05:22;100317.56;;;7.09;86.34
21779;BME280;11050;52.222;20.916;2023-04-27T06:07:48;100324.59;;;7.16;85.71
21779;BME280;11050;52.222;20.916;2023-04-27T06:10:14;100328.91;;;7.24;84.64
21779;BME280;11050;52.222;20.916;2023-04-27T06:12:40;100329.28;;;7.27;83.13
21779;BME280;11050;52.222;20.916;2023-04-27T06:15:07;100318.47;;;7.32;83.05
21779;BME280;11050;52.222;20.916;2023-04-27T06:17:35;100331.47;;;7.37;82.55
21779;BME280;11050;52.222;20.916;2023-04-27T06:20:03;100334.56;;;7.40;82.29
21779;BME280;11050;52.222;20.916;2023-04-27T06:22:33;100335.88;;;7.49;82.36
21779;BME280;11050;52.222;20.916;2023-04-27T06:24:58;100328.28;;;7.51;81.77
21779;BME280;11050;52.222;20.916;2023-04-27T06:27:24;100338.41;;;7.62;82.95
21779;BME280;11050;52.222;20.916;2023-04-27T06:29:50;100335.47;;;7.76;82.43
21779;BME280;11050;52.222;20.916;2023-04-27T06:32:16;100348.69;;;7.90;82.13
21779;BME280;11050;52.222;20.916;2023-04-27T06:34:42;100342.03;;;7.98;80.77
21779;BME280;11050;52.222;20.916;2023-04-27T06:37:08;100333.50;;;8.06;79.67
21779;BME280;11050;52.222;20.916;2023-04-27T06:39:34;100337.53;;;8.15;79.61
21779;BME280;11050;52.222;20.916;2023-04-27T06:42:00;100342.47;;;8.24;80.13
21779;BME280;11050;52.222;20.916;2023-04-27T06:44:25;100347.59;;;8.32;79.32
21779;BME280;11050;52.222;20.916;2023-04-27T06:46:51;100343.41;;;8.41;77.81
21779;BME280;11050;52.222;20.916;2023-04-27T06:49:17;100342.81;;;8.51;77.83
21779;BME280;11050;52.222;20.916;2023-04-27T06:51:47;100341.84;;;8.57;77.15
21779;BME280;11050;52.222;20.916;2023-04-27T06:54:13;100352.66;;;8.75;75.90
21779;BME280;11050;52.222;20.916;2023-04-27T06:56:39;100353.47;;;8.87;75.52
21779;BME280;11050;52.222;20.916;2023-04-27T06:59:05;100352.63;;;8.98;75.68
21779;BME280;11050;52.222;20.916;2023-04-27T07:01:30;100356.28;;;9.04;72.52
21779;BME280;11050;52.222;20.916;2023-04-27T07:03:56;100347.34;;;9.08;73.14
21779;BME280;11050;52.222;20.916;2023-04-27T07:06:22;100349.34;;;9.13;73.48
21779;BME280;11050;52.222;20.916;2023-04-27T07:08:49;100338.25;;;9.19;72.12
21779;BME280;11050;52.222;20.916;2023-04-27T07:11:15;100355.84;;;9.35;69.56
21779;BME280;11050;52.222;20.916;2023-04-27T07:13:42;100352.00;;;9.36;68.22
21779;BME280;11050;52.222;20.916;2023-04-27T07:16:08;100349.81;;;9.49;68.00
21779;BME280;11050;52.222;20.916;2023-04-27T07:18:34;100355.59;;;9.65;68.44
21779;BME280;11050;52.222;20.916;2023-04-27T07:20:59;100350.94;;;9.65;66.17
21779;BME280;11050;52.222;20.916;2023-04-27T07:23:25;100364.09;;;9.80;65.78
21779;BME280;11050;52.222;20.916;2023-04-27T07:25:51;100365.34;;;9.89;66.37
21779;BME280;11050;52.222;20.916;2023-04-27T07:28:17;100351.47;;;9.95;67.02
21779;BME280;11050;52.222;20.916;2023-04-27T07:30:43;100359.34;;;10.20;64.29
21779;BME280;11050;52.222;20.916;2023-04-27T07:33:09;100367.81;;;10.35;61.63
21779;BME280;11050;52.222;20.916;2023-04-27T07:35:35;100370.91;;;10.38;59.54
21779;BME280;11050;52.222;20.916;2023-04-27T07:38:02;100373.97;;;10.42;60.86
21779;BME280;11050;52.222;20.916;2023-04-27T07:40:29;100364.63;;;10.43;62.28
21779;BME280;11050;52.222;20.916;2023-04-27T07:42:57;100350.88;;;10.43;62.65
21779;BME280;11050;52.222;20.916;2023-04-27T07:45:23;100372.53;;;10.56;63.88
21779;BME280;11050;52.222;20.916;2023-04-27T07:47:57;100363.75;;;10.76;63.74
21779;BME280;11050;52.222;20.916;2023-04-27T07:50:28;100369.41;;;10.86;63.07
21779;BME280;11050;52.222;20.916;2023-04-27T07:52:55;100355.38;;;10.87;62.04
21779;BME280;11050;52.222;20.916;2023-04-27T07:55:22;100368.19;;;10.98;63.01
21779;BME280;11050;52.222;20.916;2023-04-27T07:57:52;100367.91;;;11.00;60.39
21779;BME280;11050;52.222;20.916;2023-04-27T08:00:19;100391.22;;;11.14;59.61
21779;BME280;11050;52.222;20.916;2023-04-27T08:02:45;100378.38;;;11.19;60.16
21779;BME280;11050;52.222;20.916;2023-04-27T08:05:11;100375.97;;;11.28;60.27
21779;BME280;11050;52.222;20.916;2023-04-27T08:07:37;100376.69;;;11.40;58.13
21779;BME280;11050;52.222;20.916;2023-04-27T08:10:04;100389.34;;;11.63;57.68
21779;BME280;11050;52.222;20.916;2023-04-27T08:12:32;100388.38;;;11.74;55.57
21779;BME280;11050;52.222;20.916;2023-04-27T08:14:57;100365.63;;;11.83;55.72
21779;BME280;11050;52.222;20.916;2023-04-27T08:17:23;100373.66;;;11.90;54.65
21779;BME280;11050;52.222;20.916;2023-04-27T08:19:49;100381.41;;;11.93;55.69
21779;BME280;11050;52.222;20.916;2023-04-27T08:22:15;100376.41;;;11.90;56.06
21779;BME280;11050;52.222;20.916;2023-04-27T08:24:41;100375.66;;;12.26;55.55
21779;BME280;11050;52.222;20.916;2023-04-27T08:27:06;100371.50;;;12.60;53.55
21779;BME280;11050;52.222;20.916;2023-04-27T08:29:33;100382.16;;;12.88;52.07
21779;BME280;11050;52.222;20.916;2023-04-27T08:32:01;100380.66;;;13.12;48.76
21779;BME280;11050;52.222;20.916;2023-04-27T08:34:28;100383.16;;;13.14;50.16
21779;BME280;11050;52.222;20.916;2023-04-27T08:36:55;100386.72;;;13.09;49.95
21779;BME280;11050;52.222;20.916;2023-04-27T08:39:23;100377.78;;;12.97;50.79
21779;BME280;11050;52.222;20.916;2023-04-27T08:41:49;100367.06;;;13.01;50.16
21779;BME280;11050;52.222;20.916;2023-04-27T08:44:14;100388.50;;;12.89;48.53
21779;BME280;11050;52.222;20.916;2023-04-27T08:46:40;100357.53;;;12.77;47.62
21779;BME280;11050;52.222;20.916;2023-04-27T08:49:07;100367.31;;;12.99;48.52
21779;BME280;11050;52.222;20.916;2023-04-27T08:51:33;100378.50;;;13.24;47.52
21779;BME280;11050;52.222;20.916;2023-04-27T08:53:59;100362.28;;;13.38;47.62
21779;BME280;11050;52.222;20.916;2023-04-27T08:56:28;100365.94;;;13.64;45.13
21779;BME280;11050;52.222;20.916;2023-04-27T08:58:55;100372.63;;;13.78;42.67
21779;BME280;11050;52.222;20.916;2023-04-27T09:01:24;100366.00;;;13.94;43.56
21779;BME280;11050;52.222;20.916;2023-04-27T09:03:59;100370.94;;;13.67;42.53
21779;BME280;11050;52.222;20.916;2023-04-27T09:06:34;100373.50;;;13.16;44.42
21779;BME280;11050;52.222;20.916;2023-04-27T09:09:01;100376.72;;;12.57;45.19
21779;BME280;11050;52.222;20.916;2023-04-27T09:16:42;100403.72;;;11.91;49.85
21779;BME280;11050;52.222;20.916;2023-04-27T09:19:08;100368.00;;;11.75;50.76
21779;BME280;11050;52.222;20.916;2023-04-27T09:21:34;100366.47;;;11.62;51.60
21779;BME280;11050;52.222;20.916;2023-04-27T09:24:20;100384.66;;;11.63;52.17
21779;BME280;11050;52.222;20.916;2023-04-27T09:26:49;100368.91;;;11.80;52.31
21779;BME280;11050;52.222;20.916;2023-04-27T09:29:14;100367.22;;;12.06;51.29
21779;BME280;11050;52.222;20.916;2023-04-27T09:31:40;100370.75;;;12.33;49.70
21779;BME280;11050;52.222;20.916;2023-04-27T09:34:06;100360.94;;;12.52;48.97
21779;BME280;11050;52.222;20.916;2023-04-27T09:36:32;100359.31;;;12.51;48.42
21779;BME280;11050;52.222;20.916;2023-04-27T09:39:02;100355.91;;;12.39;49.29
21779;BME280;11050;52.222;20.916;2023-04-27T09:41:31;100356.34;;;12.26;49.89
21779;BME280;11050;52.222;20.916;2023-04-27T09:43:58;100361.16;;;12.09;51.12
21779;BME280;11050;52.222;20.916;2023-04-27T09:46:27;100361.03;;;11.94;52.33
21779;BME280;11050;52.222;20.916;2023-04-27T09:48:55;100369.41;;;11.77;52.81
21779;BME280;11050;52.222;20.916;2023-04-27T09:51:20;100370.81;;;11.58;56.25
21779;BME280;11050;52.222;20.916;2023-04-27T09:53:52;100372.13;;;11.51;55.85
21779;BME280;11050;52.222;20.916;2023-04-27T09:56:59;100388.06;;;11.48;57.34
21779;BME280;11050;52.222;20.916;2023-04-27T10:03:22;100379.69;;;11.38;56.88
21779;BME280;11050;52.222;20.916;2023-04-27T10:09:19;100382.19;;;11.18;55.63
21779;BME280;11050;52.222;20.916;2023-04-27T10:11:48;100371.66;;;11.10;55.99
21779;BME280;11050;52.222;20.916;2023-04-27T10:14:20;100370.50;;;11.06;55.35
21779;BME280;11050;52.222;20.916;2023-04-27T10:16:56;100383.72;;;11.09;54.91
21779;BME280;11050;52.222;20.916;2023-04-27T10:19:23;100378.69;;;11.23;54.89
21779;BME280;11050;52.222;20.916;2023-04-27T10:22:00;100383.06;;;11.45;54.35
21779;BME280;11050;52.222;20.916;2023-04-27T10:24:38;100386.00;;;11.61;52.64
21779;BME280;11050;52.222;20.916;2023-04-27T10:27:10;100386.25;;;11.59;50.58
21779;BME280;11050;52.222;20.916;2023-04-27T10:29:45;100377.66;;;11.77;50.41
21779;BME280;11050;52.222;20.916;2023-04-27T10:32:18;100372.00;;;11.89;49.03
21779;BME280;11050;52.222;20.916;2023-04-27T10:34:45;100387.56;;;12.05;49.56
21779;BME280;11050;52.222;20.916;2023-04-27T10:37:14;100381.84;;;12.11;51.03
21779;BME280;11050;52.222;20.916;2023-04-27T10:39:43;100364.59;;;12.21;50.36
21779;BME280;11050;52.222;20.916;2023-04-27T10:42:09;100386.56;;;12.48;49.41
21779;BME280;11050;52.222;20.916;2023-04-27T10:44:37;100377.34;;;12.69;48.88
21779;BME280;11050;52.222;20.916;2023-04-27T10:47:15;100369.75;;;12.86;47.52
21779;BME280;11050;52.222;20.916;2023-04-27T10:49:42;100368.03;;;13.21;47.30
21779;BME280;11050;52.222;20.916;2023-04-27T10:52:08;100368.78;;;14.09;45.19
21779;BME280;11050;52.222;20.916;2023-04-27T10:54:35;100377.13;;;14.49;40.71
21779;BME280;11050;52.222;20.916;2023-04-27T10:57:06;100379.31;;;14.32;41.84
21779;BME280;11050;52.222;20.916;2023-04-27T10:59:34;100375.69;;;14.06;42.17
21779;BME280;11050;52.222;20.916;2023-04-27T11:02:00;100377.59;;;13.91;43.26
21779;BME280;11050;52.222;20.916;2023-04-27T11:04:40;100392.75;;;13.68;43.46
21779;BME280;11050;52.222;20.916;2023-04-27T11:07:09;100388.41;;;13.20;44.86
21779;BME280;11050;52.222;20.916;2023-04-27T11:09:41;100388.13;;;12.70;49.67
21779;BME280;11050;52.222;20.916;2023-04-27T11:12:11;100386.75;;;12.36;49.87
21779;BME280;11050;52.222;20.916;2023-04-27T11:14:37;100398.25;;;12.28;51.20
21779;BME280;11050;52.222;20.916;2023-04-27T11:17:04;100389.56;;;12.09;50.99
21779;BME280;11050;52.222;20.916;2023-04-27T11:19:30;100387.34;;;12.06;52.13
21779;BME280;11050;52.222;20.916;2023-04-27T11:22:04;100389.38;;;12.21;50.09
21779;BME280;11050;52.222;20.916;2023-04-27T11:24:32;100393.00;;;12.26;51.00
21779;BME280;11050;52.222;20.916;2023-04-27T11:26:58;100396.44;;;12.38;50.18
21779;BME280;11050;52.222;20.916;2023-04-27T11:29:23;100389.63;;;12.51;50.03
21779;BME280;11050;52.222;20.916;2023-04-27T11:31:50;100389.09;;;12.54;48.49
21779;BME280;11050;52.222;20.916;2023-04-27T11:34:21;100387.09;;;12.81;47.63
21779;BME280;11050;52.222;20.916;2023-04-27T11:37:03;100395.56;;;13.16;45.42
21779;BME280;11050;52.222;20.916;2023-04-27T11:39:38;100392.88;;;13.26;43.07
21779;BME280;11050;52.222;20.916;2023-04-27T11:42:19;100397.38;;;13.53;43.59
21779;BME280;11050;52.222;20.916;2023-04-27T11:45:06;100385.09;;;14.00;42.08
21779;BME280;11050;52.222;20.916;2023-04-27T11:47:33;100388.19;;;14.44;39.06
21779;BME280;11050;52.222;20.916;2023-04-27T11:50:04;100393.34;;;14.96;38.28
21779;BME280;11050;52.222;20.916;2023-04-27T11:52:36;100391.28;;;16.34;35.37
21779;BME280;11050;52.222;20.916;2023-04-27T11:55:03;100382.13;;;17.43;33.19
21779;BME280;11050;52.222;20.916;2023-04-27T11:57:33;100375.28;;;18.34;31.25
21779;BME280;11050;52.222;20.916;2023-04-27T12:00:03;100382.03;;;19.51;29.17
21779;BME280;11050;52.222;20.916;2023-04-27T12:02:36;100376.19;;;20.24;28.37
21779;BME280;11050;52.222;20.916;2023-04-27T12:05:03;100381.09;;;20.05;29.40
21779;BME280;11050;52.222;20.916;2023-04-27T12:07:29;100374.91;;;19.59;28.76
21779;BME280;11050;52.222;20.916;2023-04-27T12:09:55;100381.94;;;18.70;29.71
21779;BME280;11050;52.222;20.916;2023-04-27T12:12:22;100380.41;;;17.89;31.00
21779;BME280;11050;52.222;20.916;2023-04-27T12:14:49;100380.47;;;16.95;31.73
21779;BME280;11050;52.222;20.916;2023-04-27T12:17:16;100384.03;;;16.38;32.07
21779;BME280;11050;52.222;20.916;2023-04-27T12:19:42;100379.44;;;15.85;32.91
21779;BME280;11050;52.222;20.916;2023-04-27T12:22:08;100384.44;;;15.83;33.02
21779;BME280;11050;52.222;20.916;2023-04-27T12:24:34;100375.06;;;16.46;32.00
21779;BME280;11050;52.222;20.916;2023-04-27T12:27:01;100374.84;;;17.24;31.12
21779;BME280;11050;52.222;20.916;2023-04-27T12:29:28;100387.19;;;18.02;29.86
21779;BME280;11050;52.222;20.916;2023-04-27T12:31:54;100386.56;;;18.74;28.08
21779;BME280;11050;52.222;20.916;2023-04-27T12:34:20;100393.13;;;19.11;27.16
21779;BME280;11050;52.222;20.916;2023-04-27T12:36:46;100404.09;;;19.48;27.18
21779;BME280;11050;52.222;20.916;2023-04-27T12:39:17;100388.94;;;19.54;26.18
21779;BME280;11050;52.222;20.916;2023-04-27T12:41:46;100394.81;;;19.39;25.91
21779;BME280;11050;52.222;20.916;2023-04-27T12:44:13;100379.88;;;18.43;26.66
21779;BME280;11050;52.222;20.916;2023-04-27T12:46:40;100396.28;;;17.70;27.70
21779;BME280;11050;52.222;20.916;2023-04-27T12:49:08;100391.59;;;16.95;28.71
21779;BME280;11050;52.222;20.916;2023-04-27T12:51:35;100390.91;;;16.46;30.17
21779;BME280;11050;52.222;20.916;2023-04-27T12:54:05;100394.75;;;16.16;30.97
21779;BME280;11050;52.222;20.916;2023-04-27T12:56:32;100392.97;;;15.91;31.13